Detall de PIREP

Printer-friendly versionPDF version

[2014/12/05 07:53:00]
Flight IATA:CT3219
Pilot Number:042
Company ICAO:CAT
Aircraft Type:A320/E
PAX:93
Departing Airport: EFHK
Destination Airport: LEPA
Alternate Airport:LEMH
Online: VATSIM
Route:ELMUT PEVEN KOLJA N746 GORPI Z80 TILAV L87 PESEL UL87 ANELA UN869 MILPA UN852 VERSO UL129 LUNIK
Flight Level:F360
No Slew and time accel
No pause
Crash detect
Detect pilot in Cockpit between each 30 and 45 minutes
07:53 Zero fuel Weight: 83017 Lbs, Fuel Weight: 41832 Lbs
07:53 VATSIM:EFHK 050720Z 17003KT 0300 R04R/0650N R15/0650D R22L/0650N R04L/0700N -DZ FG VV002 01/01 Q1024 NOSIG
07:53 VATSIM:LEPA 050730Z 26004KT 9999 FEW025 11/07 Q1015 NOSIG
08:03 Parking Brakes off
08:27 Take-off
08:27 Take off Weight: 149000 Lbs
08:27 Wind: 201º @ 005 Knots Heading: 153º
08:27 POS N60º 19´ 00´´ E024º 58´ 41´´
08:27 Gear Up: 151 Knots
08:27 Flaps:3 at 151 Knots
08:29 Flaps:2 at 124 Knots
08:31 Flaps:0 at 197 Knots
08:42 Wind:234º@023 Knots Heading: 246º Ground Speed: 426 Knots Altitude 26948 ft
08:54 TOC
08:54 Fuel Weight: 36517 Lb
08:57 Wind:217º@038 Knots Heading: 216º Ground Speed: 428 Knots Altitude 36430 ft
09:12 Wind:198º@032 Knots Heading: 213º Ground Speed: 418 Knots Altitude 36227 ft
09:27 Wind:218º@020 Knots Heading: 211º Ground Speed: 432 Knots Altitude 38192 ft
09:42 Wind:232º@024 Knots Heading: 205º Ground Speed: 431 Knots Altitude 38143 ft
09:57 Wind:255º@021 Knots Heading: 206º Ground Speed: 442 Knots Altitude 38136 ft
10:12 Wind:261º@016 Knots Heading: 218º Ground Speed: 444 Knots Altitude 38136 ft
10:27 Wind:204º@006 Knots Heading: 225º Ground Speed: 451 Knots Altitude 38139 ft
10:42 Wind:176º@008 Knots Heading: 233º Ground Speed: 452 Knots Altitude 38139 ft
10:57 Wind:151º@015 Knots Heading: 229º Ground Speed: 454 Knots Altitude 38087 ft
11:12 Wind:171º@008 Knots Heading: 192º Ground Speed: 449 Knots Altitude 38083 ft
11:27 Wind:242º@012 Knots Heading: 202º Ground Speed: 448 Knots Altitude 37965 ft
11:42 Wind:256º@024 Knots Heading: 209º Ground Speed: 445 Knots Altitude 38077 ft
11:50 TOD
11:50 Fuel Weight: 22406 Lb
11:57 Wind:240º@008 Knots Heading: 178º Ground Speed: 369 Knots Altitude 21115 ft
12:05 Flaps:1 at 198 Knots
12:11 Flaps:3 at 191 Knots
12:12 Wind:286º@019 Knots Heading: 244º Ground Speed: 179 Knots Altitude 2506 ft
12:12 Gear Down: 180 Knots
12:12 Flaps:4 at 170 Knots
12:12 Flaps:5 at 164 Knots
12:15 TouchDown:Rate -196 ft/min Speed: 136 Knots
12:15 VATSIM:LEPA 051200Z 25008KT 220V290 9999 FEW025 SCT040 16/08 Q1016 NOSIG
12:15 Land
12:15 Wind:253º@008 Knots
12:15 Heading: 239º
12:15 Flight Duration: 03:48
12:15 Landing Weight: 129629 Lbs
12:15 POS N39º 32´ 58´´E002º 44´ 57´´
12:17 Parking brakes on
12:17 Block to Block Duration: 04:14
12:17 Final Fuel: 21311 Lbls
12:17 Spent Fuel: 20520 Lbls
12:17 Flight Length: 1567 NM
12:17 TOD Land Length: 112 NM

Exportar CSV

Powered by Drupal - Modified by Danger4k